createdAt,value
2023-02-03T00:00:34.520Z,9.30
2023-02-03T00:03:02.995Z,8.60
2023-02-03T00:05:32.621Z,11.20
2023-02-03T00:08:01.435Z,10.80
2023-02-03T00:10:29.999Z,9.60
2023-02-03T00:12:59.414Z,10.60
2023-02-03T00:15:30.443Z,12.10
2023-02-03T00:18:01.028Z,9.40
2023-02-03T00:20:29.848Z,9.20
2023-02-03T00:23:06.071Z,8.40
2023-02-03T00:25:39.176Z,10.50
2023-02-03T00:28:08.752Z,8.20
2023-02-03T00:30:40.201Z,9.50
2023-02-03T00:33:08.635Z,10.70
2023-02-03T00:35:40.687Z,10.50
2023-02-03T00:38:11.045Z,12.90
2023-02-03T00:40:40.586Z,10.10
2023-02-03T00:43:11.526Z,10.60
2023-02-03T00:45:40.835Z,10.40
2023-02-03T00:48:09.067Z,11.50
2023-02-03T00:50:37.670Z,10.10
2023-02-03T00:53:06.502Z,13.40
2023-02-03T00:55:35.665Z,11.90
2023-02-03T00:58:06.197Z,9.60
2023-02-03T01:00:35.669Z,14.80
2023-02-03T01:03:04.357Z,13.60
2023-02-03T01:05:33.082Z,12.10
2023-02-03T01:08:02.129Z,11.80
2023-02-03T01:10:31.269Z,13.60
2023-02-03T01:13:02.856Z,16.00
2023-02-03T01:15:31.765Z,14.50
2023-02-03T01:18:01.982Z,15.20
2023-02-03T01:20:30.943Z,13.80
2023-02-03T01:23:00.879Z,22.50
2023-02-03T01:25:31.520Z,20.20
2023-02-03T01:28:00.353Z,20.00
2023-02-03T01:30:29.407Z,20.30
2023-02-03T01:32:58.109Z,21.90
2023-02-03T01:35:27.333Z,24.10
2023-02-03T01:37:55.650Z,24.20
2023-02-03T01:40:24.424Z,19.90
2023-02-03T01:42:52.882Z,25.70
2023-02-03T01:45:21.202Z,25.80
2023-02-03T01:47:51.286Z,28.60
2023-02-03T01:50:32.076Z,28.00
2023-02-03T01:53:09.061Z,31.90
2023-02-03T01:55:45.415Z,25.80
2023-02-03T01:58:20.407Z,25.50
2023-02-03T02:00:50.881Z,32.90
2023-02-03T02:03:20.692Z,36.40
2023-02-03T02:05:51.078Z,34.20
2023-02-03T02:08:19.491Z,33.10
2023-02-03T02:10:48.085Z,30.20
2023-02-03T02:13:17.328Z,32.90
2023-02-03T02:16:15.333Z,39.00
2023-02-03T02:18:49.845Z,35.10
2023-02-03T02:21:24.993Z,36.70
2023-02-03T02:24:12.270Z,37.00
2023-02-03T02:27:08.220Z,35.70
2023-02-03T02:30:15.528Z,39.40
2023-02-03T02:32:55.116Z,36.20
2023-02-03T02:35:34.028Z,36.10
2023-02-03T02:38:22.706Z,36.20
2023-02-03T02:41:17.039Z,31.50
2023-02-03T02:44:01.244Z,32.70
2023-02-03T02:46:51.893Z,37.00
2023-02-03T02:49:35.804Z,39.60
2023-02-03T02:52:05.352Z,31.50
2023-02-03T02:54:39.777Z,38.50
2023-02-03T02:57:10.593Z,40.70
2023-02-03T02:59:40.627Z,27.40
2023-02-03T03:02:12.963Z,32.40
2023-02-03T03:04:41.686Z,33.90
2023-02-03T03:07:14.203Z,34.30
2023-02-03T03:09:51.204Z,49.70
2023-02-03T03:12:23.102Z,45.00
2023-02-03T03:15:01.584Z,38.30
2023-02-03T03:18:01.839Z,41.30
2023-02-03T03:20:31.260Z,41.70
2023-02-03T03:23:04.655Z,49.40
2023-02-03T03:25:52.372Z,42.10
2023-02-03T03:28:27.132Z,48.60
2023-02-03T03:33:24.381Z,53.10
2023-02-03T03:36:05.828Z,48.50
2023-02-03T03:38:49.827Z,45.20
2023-02-03T03:42:01.873Z,50.30
2023-02-03T03:44:35.348Z,48.00
2023-02-03T03:47:16.522Z,45.00
2023-02-03T03:49:45.965Z,53.60
2023-02-03T03:52:21.724Z,48.50
2023-02-03T03:54:50.856Z,51.90
2023-02-03T03:57:39.037Z,50.80
2023-02-03T04:00:12.127Z,49.70
2023-02-03T04:02:40.874Z,43.00
2023-02-03T04:05:09.354Z,50.60
2023-02-03T04:07:45.610Z,48.60
2023-02-03T04:10:30.513Z,48.60
2023-02-03T04:13:00.464Z,46.50
2023-02-03T04:15:30.948Z,52.50
2023-02-03T04:18:01.766Z,50.00
2023-02-03T04:20:32.354Z,52.00
2023-02-03T04:23:00.689Z,52.00
2023-02-03T04:25:29.289Z,49.60
2023-02-03T04:28:01.159Z,48.80
2023-02-03T04:30:31.523Z,49.20
2023-02-03T04:33:02.738Z,55.30
2023-02-03T04:35:31.460Z,47.20
2023-02-03T04:38:03.126Z,49.30
2023-02-03T04:40:34.672Z,48.30
2023-02-03T04:43:08.996Z,41.70
2023-02-03T04:45:38.492Z,38.30
2023-02-03T04:48:09.517Z,46.10
2023-02-03T04:50:39.501Z,37.40
2023-02-03T04:53:09.851Z,36.70
2023-02-03T04:55:43.898Z,41.20
2023-02-03T05:01:20.292Z,40.20
2023-02-03T05:03:53.193Z,42.50
2023-02-03T05:09:15.890Z,37.50
2023-02-03T05:11:47.169Z,54.70
2023-02-03T05:14:16.696Z,43.90
2023-02-03T05:16:58.489Z,40.00
2023-02-03T05:19:57.545Z,38.00
2023-02-03T05:22:29.308Z,36.90
2023-02-03T05:25:00.260Z,39.70
2023-02-03T05:27:31.896Z,36.60
2023-02-03T05:30:01.114Z,38.00
2023-02-03T05:32:33.179Z,39.90
2023-02-03T05:35:12.589Z,43.40
2023-02-03T05:37:50.984Z,38.80
2023-02-03T05:43:41.870Z,36.30
2023-02-03T05:46:17.764Z,32.80
2023-02-03T05:48:49.383Z,31.30
2023-02-03T05:51:31.790Z,32.40
2023-02-03T05:54:03.997Z,29.80
2023-02-03T05:56:58.332Z,35.40
2023-02-03T06:00:00.701Z,31.50
2023-02-03T06:02:31.285Z,23.50
2023-02-03T06:05:04.240Z,23.70
2023-02-03T06:10:31.018Z,26.60
2023-02-03T06:13:17.824Z,27.40
2023-02-03T06:22:03.457Z,31.80
2023-02-03T06:27:37.972Z,35.80
2023-02-03T06:33:33.119Z,34.20
2023-02-03T07:25:59.879Z,31.40
2023-02-03T07:38:22.917Z,32.00
2023-02-03T07:41:17.705Z,28.00
2023-02-03T07:57:36.795Z,24.70
2023-02-03T08:45:46.593Z,16.90
2023-02-03T08:48:37.074Z,22.60
2023-02-03T09:03:42.587Z,20.20
2023-02-03T09:06:26.669Z,18.90
2023-02-03T09:17:45.805Z,20.50
2023-02-03T09:29:27.826Z,23.70
2023-02-03T09:32:08.699Z,24.60
2023-02-03T09:34:37.824Z,29.20
2023-02-03T09:37:06.131Z,24.10
2023-02-03T09:39:34.570Z,30.70
2023-02-03T09:42:51.279Z,28.30
2023-02-03T09:48:53.055Z,22.80
2023-02-03T09:51:35.408Z,22.30
2023-02-03T09:54:19.672Z,19.60
2023-02-03T09:56:52.978Z,20.90
2023-02-03T09:59:24.524Z,24.20
2023-02-03T10:02:09.686Z,22.50
2023-02-03T10:04:40.511Z,20.50
2023-02-03T10:07:45.958Z,21.20
2023-02-03T10:10:35.653Z,22.40
2023-02-03T10:13:22.079Z,25.00
2023-02-03T10:18:51.994Z,25.50
2023-02-03T10:21:38.201Z,24.10
2023-02-03T10:24:15.301Z,25.90
2023-02-03T10:26:51.750Z,21.90
2023-02-03T10:29:27.639Z,20.60
2023-02-03T10:31:58.905Z,22.80
2023-02-03T10:34:31.549Z,21.80
2023-02-03T10:40:18.647Z,16.50
2023-02-03T10:43:19.901Z,16.90
2023-02-03T10:45:52.409Z,14.30
2023-02-03T10:48:33.703Z,14.80
2023-02-03T10:51:06.080Z,15.00
2023-02-03T10:53:36.697Z,18.10
2023-02-03T10:56:09.579Z,20.10
2023-02-03T10:58:38.859Z,20.50
2023-02-03T11:01:11.930Z,23.40
2023-02-03T11:03:45.045Z,22.10
2023-02-03T11:06:14.370Z,20.70
2023-02-03T11:08:44.726Z,21.50
2023-02-03T11:11:15.374Z,23.20
2023-02-03T11:13:43.590Z,24.30
2023-02-03T11:16:14.499Z,26.60
2023-02-03T11:19:09.700Z,27.60
2023-02-03T11:21:39.532Z,28.20
2023-02-03T11:24:13.870Z,32.90
2023-02-03T11:26:58.904Z,37.70
2023-02-03T11:29:28.599Z,31.70
2023-02-03T11:31:58.637Z,33.10
2023-02-03T11:34:38.280Z,33.30
2023-02-03T11:37:26.397Z,29.70
2023-02-03T11:40:07.093Z,29.00
2023-02-03T11:42:36.764Z,25.50
2023-02-03T11:45:44.858Z,26.80
2023-02-03T11:48:22.200Z,29.60
2023-02-03T11:50:56.722Z,25.20
2023-02-03T11:53:56.678Z,25.10
2023-02-03T11:56:28.614Z,26.60
2023-02-03T11:59:20.741Z,22.60
2023-02-03T12:02:27.383Z,23.60
2023-02-03T12:05:01.667Z,22.60
2023-02-03T12:08:08.840Z,20.20
2023-02-03T12:10:52.096Z,24.40
2023-02-03T12:13:34.161Z,23.00
2023-02-03T12:16:24.867Z,24.20
2023-02-03T12:19:15.152Z,21.10
2023-02-03T12:21:49.429Z,20.00
2023-02-03T12:24:41.231Z,22.10
2023-02-03T12:27:31.098Z,22.80
2023-02-03T12:30:07.440Z,24.00
2023-02-03T12:32:55.883Z,23.40
2023-02-03T12:35:39.298Z,23.20
2023-02-03T12:38:13.227Z,21.30
2023-02-03T12:40:49.156Z,15.20
2023-02-03T12:43:42.398Z,15.80
2023-02-03T12:46:20.919Z,15.80
2023-02-03T12:48:52.160Z,11.30
2023-02-03T12:51:28.857Z,9.50
2023-02-03T12:54:00.266Z,12.30
2023-02-03T12:56:34.304Z,9.30
2023-02-03T12:59:07.188Z,11.70
2023-02-03T13:01:47.947Z,6.90
2023-02-03T13:04:47.741Z,8.70
2023-02-03T13:07:18.366Z,7.80
2023-02-03T13:10:13.986Z,7.60
2023-02-03T13:12:47.870Z,7.30
2023-02-03T13:15:20.971Z,7.10
2023-02-03T13:17:57.292Z,12.40
2023-02-03T13:20:29.262Z,8.70
2023-02-03T13:22:58.182Z,10.70
2023-02-03T13:25:42.177Z,7.90
2023-02-03T13:28:28.685Z,11.10
2023-02-03T13:31:21.804Z,8.90
2023-02-03T13:33:57.183Z,7.50
2023-02-03T13:36:38.970Z,8.10
2023-02-03T13:39:34.196Z,10.40
2023-02-03T13:42:24.721Z,11.50
2023-02-03T13:45:03.693Z,7.20
2023-02-03T13:47:32.009Z,9.90
2023-02-03T13:50:02.977Z,7.90
2023-02-03T13:52:57.807Z,11.20
2023-02-03T13:55:59.206Z,11.70
2023-02-03T13:58:38.075Z,8.40
2023-02-03T14:01:45.950Z,13.20
2023-02-03T14:04:26.029Z,13.30
2023-02-03T14:07:01.349Z,23.60
2023-02-03T14:09:34.385Z,12.90
2023-02-03T14:12:15.276Z,11.10
2023-02-03T14:14:45.639Z,10.70
2023-02-03T14:17:36.443Z,9.40
2023-02-03T14:20:08.848Z,7.60
2023-02-03T14:22:37.643Z,9.80
2023-02-03T14:25:06.186Z,10.20
2023-02-03T14:27:34.734Z,6.10
2023-02-03T14:30:09.480Z,6.40
2023-02-03T14:32:58.038Z,8.50
2023-02-03T14:35:40.638Z,12.00
2023-02-03T14:38:13.431Z,9.40
2023-02-03T14:40:45.892Z,9.10
2023-02-03T14:43:48.754Z,12.10
2023-02-03T14:46:35.498Z,16.40
2023-02-03T14:49:06.892Z,17.80
2023-02-03T14:51:54.712Z,16.50
2023-02-03T14:54:27.352Z,23.20
2023-02-03T14:57:21.347Z,15.40
2023-02-03T14:59:58.943Z,12.00
2023-02-03T15:02:31.120Z,15.00
2023-02-03T15:05:14.860Z,16.40
2023-02-03T15:07:46.563Z,27.50
2023-02-03T15:10:16.304Z,27.80
2023-02-03T15:12:49.732Z,18.70
2023-02-03T15:15:28.547Z,18.90
2023-02-03T15:17:58.304Z,23.20
2023-02-03T15:20:41.658Z,25.20
2023-02-03T15:23:20.697Z,27.00
2023-02-03T15:26:03.544Z,27.80
2023-02-03T15:28:31.770Z,23.30
2023-02-03T15:31:15.205Z,26.70
2023-02-03T15:33:44.755Z,19.90
2023-02-03T15:36:22.054Z,18.50
2023-02-03T15:38:55.781Z,25.70
2023-02-03T15:41:24.833Z,27.40
2023-02-03T15:43:58.784Z,23.20
2023-02-03T15:46:38.171Z,27.50
2023-02-03T15:49:17.763Z,33.20
2023-02-03T15:51:51.585Z,39.80
2023-02-03T15:54:24.956Z,36.20
2023-02-03T15:57:05.571Z,40.40
2023-02-03T15:59:42.555Z,34.40
2023-02-03T16:02:34.201Z,38.20
2023-02-03T16:05:28.933Z,43.10
2023-02-03T16:07:57.453Z,46.60
2023-02-03T16:10:29.063Z,60.50
2023-02-03T16:13:26.544Z,68.90
2023-02-03T16:16:05.905Z,68.40
2023-02-03T16:18:36.854Z,56.00
2023-02-03T16:21:05.113Z,47.40
2023-02-03T16:23:33.536Z,44.50
2023-02-03T16:26:17.786Z,39.00
2023-02-03T16:32:12.266Z,31.10
2023-02-03T16:34:59.215Z,21.00
2023-02-03T16:37:53.753Z,19.90
2023-02-03T16:40:41.636Z,17.90
2023-02-03T16:43:33.417Z,22.50
2023-02-03T16:46:29.133Z,19.20
2023-02-03T16:49:15.994Z,24.10
2023-02-03T16:51:44.163Z,25.00
2023-02-03T16:54:13.975Z,21.60
2023-02-03T16:56:42.697Z,26.80
2023-02-03T16:59:11.227Z,25.30
2023-02-03T17:01:41.787Z,25.90
2023-02-03T17:04:11.693Z,26.80
2023-02-03T17:06:40.279Z,28.00
2023-02-03T17:09:12.440Z,27.70
2023-02-03T17:11:40.607Z,24.40
2023-02-03T17:14:09.248Z,22.80
2023-02-03T17:16:37.455Z,23.20
2023-02-03T17:19:05.765Z,24.30
2023-02-03T17:21:34.036Z,27.70
2023-02-03T17:24:02.471Z,27.10
2023-02-03T17:26:30.746Z,27.60
2023-02-03T17:29:03.291Z,38.60
2023-02-03T17:31:31.997Z,42.80
2023-02-03T17:34:00.921Z,71.70
2023-02-03T17:36:29.277Z,64.50
2023-02-03T17:55:33.834Z,54.70
2023-02-03T17:58:04.050Z,57.60
2023-02-03T18:00:32.884Z,48.30
2023-02-03T18:03:01.261Z,42.40
2023-02-03T18:05:30.058Z,41.80
2023-02-03T18:08:03.026Z,40.00
2023-02-03T18:10:37.409Z,39.30
2023-02-03T18:13:07.810Z,38.90
2023-02-03T18:15:37.977Z,36.70
2023-02-03T18:18:08.094Z,39.50
2023-02-03T18:20:36.374Z,38.80
2023-02-03T18:23:05.021Z,48.80
2023-02-03T18:25:35.817Z,47.60
2023-02-03T18:28:04.779Z,44.20
2023-02-03T18:30:33.763Z,42.60
2023-02-03T18:33:03.894Z,42.40
2023-02-03T18:35:33.504Z,43.30
2023-02-03T18:38:03.439Z,37.80
2023-02-03T18:40:32.192Z,32.60
2023-02-03T18:43:02.453Z,34.80
2023-02-03T18:45:31.090Z,31.70
2023-02-03T18:47:59.415Z,32.30
2023-02-03T18:50:28.122Z,27.90
2023-02-03T18:52:56.799Z,28.40
2023-02-03T18:55:25.080Z,25.70
2023-02-03T18:57:53.637Z,27.50
2023-02-03T19:00:21.866Z,20.70
2023-02-03T19:02:50.440Z,20.30
2023-02-03T19:05:19.720Z,24.50
2023-02-03T19:07:48.468Z,20.60
2023-02-03T19:10:17.542Z,24.70
2023-02-03T19:12:48.006Z,18.00
2023-02-03T19:15:16.829Z,22.70
2023-02-03T19:17:46.221Z,25.80
2023-02-03T19:20:14.636Z,22.00
2023-02-03T19:22:44.404Z,17.80
2023-02-03T19:25:13.394Z,17.60
2023-02-03T19:27:41.805Z,15.70
2023-02-03T19:30:11.623Z,17.70
2023-02-03T19:32:42.626Z,20.80
2023-02-03T19:35:11.010Z,18.00
2023-02-03T19:37:39.346Z,20.20
2023-02-03T19:40:08.316Z,18.20
2023-02-03T19:42:37.907Z,16.60
2023-02-03T19:45:07.125Z,17.50
2023-02-03T19:47:35.295Z,18.50
2023-02-03T19:50:04.800Z,20.80
2023-02-03T19:52:33.359Z,16.10
2023-02-03T19:55:01.539Z,15.50
2023-02-03T19:57:30.010Z,13.90
2023-02-03T19:59:58.409Z,15.30
2023-02-03T20:02:27.094Z,16.00
2023-02-03T20:04:55.953Z,13.10
2023-02-03T20:07:28.668Z,13.90
2023-02-03T20:09:57.489Z,14.00
2023-02-03T20:12:26.091Z,12.20
2023-02-03T20:14:54.496Z,14.10
2023-02-03T20:17:22.588Z,15.30
2023-02-03T20:19:50.774Z,14.00
2023-02-03T20:22:18.912Z,14.20
2023-02-03T20:24:47.174Z,13.50
2023-02-03T20:27:15.562Z,16.20
2023-02-03T20:29:44.388Z,12.80
2023-02-03T20:32:12.525Z,14.50
2023-02-03T20:34:40.890Z,16.60
2023-02-03T20:37:09.153Z,18.00
2023-02-03T20:39:37.978Z,18.50
2023-02-03T20:42:15.888Z,14.10
2023-02-03T20:44:44.289Z,14.40
2023-02-03T20:47:13.531Z,14.20
2023-02-03T20:49:41.792Z,18.50
2023-02-03T20:52:11.617Z,15.00
2023-02-03T20:54:40.475Z,14.80
2023-02-03T20:57:18.966Z,21.50
2023-02-03T20:59:47.773Z,23.20
2023-02-03T21:02:23.369Z,26.00
2023-02-03T21:04:57.847Z,26.90
2023-02-03T21:09:56.867Z,25.00
2023-02-03T21:12:25.334Z,22.60
2023-02-03T21:14:55.275Z,22.40
2023-02-03T21:17:25.854Z,28.70
2023-02-03T21:19:54.468Z,21.30
2023-02-03T21:22:27.261Z,24.50
2023-02-03T21:24:59.836Z,18.70
2023-02-03T21:27:32.522Z,28.60
2023-02-03T21:30:02.652Z,20.20
2023-02-03T21:32:38.574Z,22.40
2023-02-03T21:35:26.677Z,23.60
2023-02-03T21:38:01.940Z,29.00
2023-02-03T21:40:32.487Z,26.60
2023-02-03T21:43:02.228Z,27.60
2023-02-03T21:45:43.795Z,26.90
2023-02-03T21:48:26.196Z,24.80
2023-02-03T21:50:56.547Z,25.00
2023-02-03T21:53:35.247Z,29.80
2023-02-03T21:56:17.869Z,29.60
2023-02-03T21:58:47.669Z,30.30
2023-02-03T22:01:19.249Z,30.80
2023-02-03T22:03:49.737Z,38.90
2023-02-03T22:06:24.226Z,34.70
2023-02-03T22:08:54.553Z,37.00
2023-02-03T22:11:24.427Z,36.70
2023-02-03T22:13:53.201Z,34.60
2023-02-03T22:16:21.684Z,34.40
2023-02-03T22:18:49.937Z,37.60
2023-02-03T22:21:18.537Z,44.50
2023-02-03T22:23:47.142Z,35.30
2023-02-03T22:26:16.748Z,38.30
2023-02-03T22:28:45.397Z,38.60
2023-02-03T22:31:14.503Z,38.20
2023-02-03T22:33:43.179Z,40.60
2023-02-03T22:36:11.788Z,39.40
2023-02-03T22:38:40.402Z,39.30
2023-02-03T22:41:09.467Z,40.70
2023-02-03T22:43:37.634Z,37.60
2023-02-03T22:46:06.981Z,38.60
2023-02-03T22:48:35.365Z,46.50
2023-02-03T22:51:05.127Z,42.00
2023-02-03T22:53:34.916Z,42.80
2023-02-03T22:56:03.221Z,42.40
2023-02-03T22:58:31.791Z,43.40
2023-02-03T23:01:00.426Z,41.50
2023-02-03T23:03:32.257Z,41.30
2023-02-03T23:06:00.613Z,46.30
2023-02-03T23:08:28.763Z,45.20
2023-02-03T23:10:56.988Z,44.90
2023-02-03T23:13:26.903Z,45.20
2023-02-03T23:15:55.515Z,49.30
2023-02-03T23:18:23.937Z,45.50
2023-02-03T23:20:52.545Z,44.20
2023-02-03T23:23:20.793Z,43.50
2023-02-03T23:25:49.294Z,42.10
2023-02-03T23:28:17.572Z,42.20
2023-02-03T23:30:46.052Z,45.80
2023-02-03T23:33:14.610Z,45.90
2023-02-03T23:35:45.635Z,46.70
2023-02-03T23:38:14.637Z,47.30
2023-02-03T23:40:43.452Z,48.60
2023-02-03T23:43:11.945Z,42.50
2023-02-03T23:45:40.646Z,42.40
2023-02-03T23:48:09.510Z,37.80
2023-02-03T23:50:38.335Z,40.50
2023-02-03T23:53:06.971Z,44.30
2023-02-03T23:55:36.558Z,41.20
2023-02-03T23:58:05.310Z,44.20
